SHU5473 ZYHB-UHWW
Flight info
| Callsign | SHU5473 |
|---|---|
| Flight time | 0h 59m |
| Altitude | 35100 |
| Route | KETOV B451 SANAR |
| Aircraft | A319/M-SDE3FGHIRWY/LB1 |
Departure
| Time | 2026-05-05 18:29 |
|---|---|
| Airport | Harbin Taiping International Airport (ZYHB) |
Arrival
| Time | 2026-05-05 19:28 |
|---|---|
| Airport | Vladivostok International Airport (UHWW) |
| Time | Latitude | Longitude | Altitude | Speed | Heading |
|---|---|---|---|---|---|
| 2026-05-05 18:05 | 45.62173 | 126.23989 | 461 ft | 0 kts | 248° |
| 2026-05-05 18:17 | 45.62174 | 126.23990 | 461 ft | 2 kts | 248° |
| 2026-05-05 18:17 | 45.62182 | 126.24018 | 436 ft | 3 kts | 247° |
| 2026-05-05 18:17 | 45.62190 | 126.24046 | 459 ft | 3 kts | 244° |
| 2026-05-05 18:17 | 45.62201 | 126.24073 | 458 ft | 3 kts | 236° |
| 2026-05-05 18:18 | 45.62214 | 126.24096 | 460 ft | 3 kts | 211° |
| 2026-05-05 18:18 | 45.62226 | 126.24104 | 458 ft | 3 kts | 141° |
| 2026-05-05 18:18 | 45.62232 | 126.24096 | 459 ft | 0 kts | 130° |
| 2026-05-05 18:20 | 45.62231 | 126.24098 | 459 ft | 1 kts | 130° |
| 2026-05-05 18:21 | 45.62216 | 126.24122 | 459 ft | 4 kts | 130° |
| 2026-05-05 18:21 | 45.62202 | 126.24146 | 460 ft | 3 kts | 130° |
| 2026-05-05 18:21 | 45.62188 | 126.24170 | 459 ft | 6 kts | 130° |
| 2026-05-05 18:21 | 45.62157 | 126.24223 | 459 ft | 7 kts | 130° |
| 2026-05-05 18:22 | 45.62130 | 126.24271 | 459 ft | 6 kts | 129° |
| 2026-05-05 18:22 | 45.62107 | 126.24309 | 457 ft | 4 kts | 129° |
| 2026-05-05 18:22 | 45.62084 | 126.24352 | 460 ft | 7 kts | 122° |
| 2026-05-05 18:22 | 45.62095 | 126.24419 | 459 ft | 8 kts | 49° |
| 2026-05-05 18:23 | 45.62155 | 126.24491 | 458 ft | 15 kts | 39° |
| 2026-05-05 18:23 | 45.62253 | 126.24602 | 457 ft | 18 kts | 39° |
| 2026-05-05 18:23 | 45.62345 | 126.24710 | 457 ft | 16 kts | 39° |
| 2026-05-05 18:23 | 45.62426 | 126.24806 | 455 ft | 14 kts | 39° |
| 2026-05-05 18:24 | 45.62498 | 126.24892 | 455 ft | 13 kts | 39° |
| 2026-05-05 18:24 | 45.62561 | 126.24965 | 456 ft | 11 kts | 39° |
| 2026-05-05 18:24 | 45.62622 | 126.25036 | 456 ft | 13 kts | 39° |
| 2026-05-05 18:24 | 45.62693 | 126.25119 | 455 ft | 13 kts | 39° |
| 2026-05-05 18:25 | 45.62755 | 126.25190 | 455 ft | 10 kts | 39° |
| 2026-05-05 18:25 | 45.62788 | 126.25228 | 453 ft | 8 kts | 39° |
| 2026-05-05 18:25 | 45.62834 | 126.25282 | 452 ft | 5 kts | 40° |
| 2026-05-05 18:25 | 45.62879 | 126.25337 | 454 ft | 15 kts | 40° |
| 2026-05-05 18:26 | 45.62954 | 126.25426 | 453 ft | 13 kts | 40° |
| 2026-05-05 18:26 | 45.63023 | 126.25507 | 451 ft | 17 kts | 38° |
| 2026-05-05 18:26 | 45.63122 | 126.25618 | 452 ft | 17 kts | 38° |
| 2026-05-05 18:26 | 45.63203 | 126.25715 | 450 ft | 14 kts | 40° |
| 2026-05-05 18:27 | 45.63267 | 126.25793 | 451 ft | 11 kts | 39° |
| 2026-05-05 18:27 | 45.63326 | 126.25860 | 451 ft | 11 kts | 39° |
| 2026-05-05 18:27 | 45.63383 | 126.25929 | 450 ft | 9 kts | 46° |
| 2026-05-05 18:27 | 45.63380 | 126.26000 | 450 ft | 6 kts | 119° |
| 2026-05-05 18:28 | 45.63325 | 126.26100 | 448 ft | 8 kts | 128° |
| 2026-05-05 18:28 | 45.63288 | 126.26128 | 449 ft | 5 kts | 189° |
| 2026-05-05 18:28 | 45.63194 | 126.26018 | 449 ft | 48 kts | 219° |
| 2026-05-05 18:29 | 45.62746 | 126.25492 | 453 ft | 117 kts | 219° |
| 2026-05-05 18:29 | 45.61965 | 126.24576 | 507 ft | 167 kts | 219° |
| 2026-05-05 18:29 | 45.61076 | 126.23513 | 1223 ft | 167 kts | 219° |
| 2026-05-05 18:29 | 45.60117 | 126.22636 | 1955 ft | 166 kts | 194° |
| 2026-05-05 18:30 | 45.58983 | 126.22823 | 2616 ft | 170 kts | 158° |
| 2026-05-05 18:30 | 45.57956 | 126.23699 | 3267 ft | 173 kts | 149° |
| 2026-05-05 18:30 | 45.56941 | 126.24657 | 3855 ft | 180 kts | 149° |
| 2026-05-05 18:30 | 45.55827 | 126.25695 | 4204 ft | 202 kts | 148° |
| 2026-05-05 18:31 | 45.54568 | 126.26836 | 4512 ft | 227 kts | 148° |
| 2026-05-05 18:31 | 45.53152 | 126.28087 | 4943 ft | 251 kts | 149° |
| 2026-05-05 18:31 | 45.51583 | 126.29443 | 5417 ft | 276 kts | 149° |
| 2026-05-05 18:31 | 45.49889 | 126.30876 | 6157 ft | 289 kts | 150° |
| 2026-05-05 18:32 | 45.48132 | 126.32342 | 7054 ft | 295 kts | 151° |
| 2026-05-05 18:32 | 45.46348 | 126.33820 | 8001 ft | 299 kts | 152° |
| 2026-05-05 18:32 | 45.44539 | 126.35311 | 8961 ft | 302 kts | 153° |
| 2026-05-05 18:32 | 45.42700 | 126.36819 | 9904 ft | 307 kts | 154° |
| 2026-05-05 18:33 | 45.40807 | 126.38362 | 10458 ft | 324 kts | 154° |
| 2026-05-05 18:33 | 45.38787 | 126.39997 | 10959 ft | 341 kts | 154° |
| 2026-05-05 18:33 | 45.36715 | 126.41678 | 11777 ft | 345 kts | 155° |
| 2026-05-05 18:33 | 45.34624 | 126.43382 | 12661 ft | 347 kts | 156° |
| 2026-05-05 18:34 | 45.32549 | 126.45162 | 13605 ft | 351 kts | 151° |
| 2026-05-05 18:34 | 45.30675 | 126.47461 | 14354 ft | 362 kts | 140° |
| 2026-05-05 18:34 | 45.28967 | 126.50133 | 15024 ft | 368 kts | 139° |
| 2026-05-05 18:34 | 45.27253 | 126.52810 | 15674 ft | 374 kts | 139° |
| 2026-05-05 18:35 | 45.25482 | 126.55557 | 16317 ft | 380 kts | 140° |
| 2026-05-05 18:35 | 45.23684 | 126.58340 | 16950 ft | 386 kts | 140° |
| 2026-05-05 18:35 | 45.21853 | 126.61168 | 17563 ft | 392 kts | 140° |
| 2026-05-05 18:35 | 45.19991 | 126.64041 | 18177 ft | 398 kts | 140° |
| 2026-05-05 18:36 | 45.18105 | 126.66947 | 18739 ft | 403 kts | 141° |
| 2026-05-05 18:36 | 45.16198 | 126.69884 | 19335 ft | 407 kts | 141° |
| 2026-05-05 18:36 | 45.14272 | 126.72848 | 19929 ft | 411 kts | 140° |
| 2026-05-05 18:36 | 45.12328 | 126.75840 | 20522 ft | 415 kts | 140° |
| 2026-05-05 18:37 | 45.10360 | 126.78869 | 21109 ft | 419 kts | 140° |
| 2026-05-05 18:37 | 45.08420 | 126.81986 | 21687 ft | 428 kts | 135° |
| 2026-05-05 18:37 | 45.06773 | 126.85570 | 22263 ft | 441 kts | 124° |
| 2026-05-05 18:37 | 45.05543 | 126.89607 | 22842 ft | 453 kts | 112° |
| 2026-05-05 18:38 | 45.04810 | 126.93996 | 23406 ft | 462 kts | 101° |
| 2026-05-05 18:38 | 45.04453 | 126.98548 | 23870 ft | 468 kts | 98° |
| 2026-05-05 18:38 | 45.04104 | 127.03131 | 24364 ft | 470 kts | 98° |
| 2026-05-05 18:38 | 45.03745 | 127.07743 | 24860 ft | 473 kts | 99° |
| 2026-05-05 18:39 | 45.03135 | 127.12306 | 25341 ft | 472 kts | 109° |
| 2026-05-05 18:39 | 45.02050 | 127.16654 | 25820 ft | 468 kts | 119° |
| 2026-05-05 18:39 | 45.00537 | 127.20701 | 26302 ft | 464 kts | 129° |
| 2026-05-05 18:39 | 44.98650 | 127.24355 | 26770 ft | 458 kts | 138° |
| 2026-05-05 18:40 | 44.96517 | 127.27688 | 27246 ft | 458 kts | 140° |
| 2026-05-05 18:40 | 44.94367 | 127.31017 | 27697 ft | 460 kts | 140° |
| 2026-05-05 18:40 | 44.92208 | 127.34366 | 28173 ft | 463 kts | 140° |
| 2026-05-05 18:40 | 44.90067 | 127.37690 | 28628 ft | 465 kts | 140° |
| 2026-05-05 18:41 | 44.87883 | 127.41076 | 29086 ft | 468 kts | 140° |
| 2026-05-05 18:41 | 44.85681 | 127.44473 | 29532 ft | 470 kts | 140° |
| 2026-05-05 18:41 | 44.83468 | 127.47879 | 29956 ft | 473 kts | 140° |
| 2026-05-05 18:41 | 44.81238 | 127.51311 | 30290 ft | 476 kts | 140° |
| 2026-05-05 18:42 | 44.78999 | 127.54763 | 30601 ft | 479 kts | 139° |
| 2026-05-05 18:42 | 44.76744 | 127.58234 | 30929 ft | 482 kts | 140° |
| 2026-05-05 18:42 | 44.74474 | 127.61721 | 31231 ft | 485 kts | 139° |
| 2026-05-05 18:42 | 44.72185 | 127.65236 | 31530 ft | 488 kts | 139° |
| 2026-05-05 18:43 | 44.69920 | 127.68712 | 31940 ft | 489 kts | 139° |
| 2026-05-05 18:43 | 44.67617 | 127.72237 | 32329 ft | 489 kts | 139° |
| 2026-05-05 18:43 | 44.65309 | 127.75759 | 32705 ft | 491 kts | 139° |
| 2026-05-05 18:43 | 44.62993 | 127.79287 | 33103 ft | 491 kts | 139° |
| 2026-05-05 18:44 | 44.60675 | 127.82816 | 33537 ft | 491 kts | 139° |
| 2026-05-05 18:44 | 44.58357 | 127.86344 | 33932 ft | 492 kts | 139° |
| 2026-05-05 18:44 | 44.56039 | 127.89872 | 34301 ft | 492 kts | 139° |
| 2026-05-05 18:44 | 44.53718 | 127.93402 | 34688 ft | 492 kts | 139° |
| 2026-05-05 18:45 | 44.51395 | 127.96931 | 35079 ft | 492 kts | 139° |
| 2026-05-05 18:45 | 44.49072 | 128.00456 | 35439 ft | 492 kts | 139° |
| 2026-05-05 18:45 | 44.46749 | 128.03973 | 35802 ft | 492 kts | 138° |
| 2026-05-05 18:45 | 44.44424 | 128.07482 | 36161 ft | 492 kts | 138° |
| 2026-05-05 18:46 | 44.42094 | 128.10997 | 36511 ft | 491 kts | 138° |
| 2026-05-05 18:46 | 44.39768 | 128.14501 | 36829 ft | 492 kts | 138° |
| 2026-05-05 18:46 | 44.35129 | 128.21476 | 36910 ft | 488 kts | 138° |
| 2026-05-05 18:47 | 44.30508 | 128.28407 | 36905 ft | 486 kts | 138° |
| 2026-05-05 18:47 | 44.25923 | 128.35252 | 36902 ft | 485 kts | 138° |
| 2026-05-05 18:48 | 44.21313 | 128.42129 | 36902 ft | 485 kts | 138° |
| 2026-05-05 18:48 | 44.16709 | 128.49003 | 36887 ft | 484 kts | 138° |
| 2026-05-05 18:49 | 44.12099 | 128.55850 | 36887 ft | 484 kts | 138° |
| 2026-05-05 18:49 | 44.07499 | 128.62709 | 36866 ft | 484 kts | 138° |
| 2026-05-05 18:50 | 44.02914 | 128.69564 | 36879 ft | 484 kts | 138° |
| 2026-05-05 18:50 | 43.98335 | 128.76401 | 36894 ft | 483 kts | 138° |
| 2026-05-05 18:51 | 43.93775 | 128.83174 | 36900 ft | 482 kts | 138° |
| 2026-05-05 18:51 | 43.89199 | 128.89959 | 36902 ft | 481 kts | 138° |
| 2026-05-05 18:52 | 43.84625 | 128.96732 | 36893 ft | 480 kts | 138° |
| 2026-05-05 18:52 | 43.80043 | 129.03478 | 36909 ft | 480 kts | 138° |
| 2026-05-05 18:53 | 43.75462 | 129.10206 | 36916 ft | 479 kts | 138° |
| 2026-05-05 18:53 | 43.70932 | 129.16907 | 36921 ft | 480 kts | 137° |
| 2026-05-05 18:54 | 43.66404 | 129.23708 | 36916 ft | 480 kts | 137° |
| 2026-05-05 18:54 | 43.61881 | 129.30493 | 36915 ft | 480 kts | 137° |
| 2026-05-05 18:55 | 43.57338 | 129.37237 | 36910 ft | 479 kts | 138° |
| 2026-05-05 18:55 | 43.52791 | 129.43965 | 36921 ft | 479 kts | 138° |
| 2026-05-05 18:56 | 43.48239 | 129.50684 | 36883 ft | 480 kts | 137° |
| 2026-05-05 18:56 | 43.44451 | 129.56274 | 36889 ft | 481 kts | 137° |
| 2026-05-05 18:57 | 43.39142 | 129.64094 | 36903 ft | 481 kts | 137° |
| 2026-05-05 18:57 | 43.34576 | 129.70808 | 36718 ft | 479 kts | 137° |
| 2026-05-05 18:58 | 43.33097 | 129.73143 | 36391 ft | 481 kts | 131° |
| 2026-05-05 18:58 | 43.30773 | 129.78352 | 35602 ft | 486 kts | 116° |
| 2026-05-05 18:58 | 43.29935 | 129.81270 | 35193 ft | 487 kts | 109° |
| 2026-05-05 18:58 | 43.29155 | 129.85796 | 34578 ft | 488 kts | 97° |
| 2026-05-05 18:59 | 43.28892 | 129.90434 | 34002 ft | 487 kts | 91° |
| 2026-05-05 18:59 | 43.28731 | 129.95079 | 33367 ft | 487 kts | 92° |
| 2026-05-05 18:59 | 43.28561 | 129.99722 | 32717 ft | 487 kts | 92° |
| 2026-05-05 18:59 | 43.28386 | 130.04311 | 32097 ft | 487 kts | 92° |
| 2026-05-05 19:00 | 43.28205 | 130.08941 | 31471 ft | 484 kts | 92° |
| 2026-05-05 19:00 | 43.28022 | 130.13551 | 30869 ft | 482 kts | 93° |
| 2026-05-05 19:00 | 43.27837 | 130.18122 | 30278 ft | 479 kts | 93° |
| 2026-05-05 19:00 | 43.27652 | 130.22676 | 29663 ft | 476 kts | 94° |
| 2026-05-05 19:01 | 43.27468 | 130.27195 | 29031 ft | 473 kts | 94° |
| 2026-05-05 19:01 | 43.27284 | 130.31681 | 28422 ft | 469 kts | 93° |
| 2026-05-05 19:01 | 43.27100 | 130.36139 | 27827 ft | 466 kts | 94° |
| 2026-05-05 19:01 | 43.26915 | 130.40553 | 27245 ft | 462 kts | 94° |
| 2026-05-05 19:02 | 43.26730 | 130.44938 | 26673 ft | 459 kts | 94° |
| 2026-05-05 19:02 | 43.26545 | 130.49288 | 26116 ft | 455 kts | 94° |
| 2026-05-05 19:02 | 43.26361 | 130.53615 | 25570 ft | 453 kts | 94° |
| 2026-05-05 19:02 | 43.26177 | 130.57921 | 25033 ft | 450 kts | 94° |
| 2026-05-05 19:03 | 43.25993 | 130.62195 | 24514 ft | 448 kts | 94° |
| 2026-05-05 19:03 | 43.25808 | 130.66405 | 24004 ft | 446 kts | 95° |
| 2026-05-05 19:03 | 43.25620 | 130.70648 | 23495 ft | 445 kts | 95° |
| 2026-05-05 19:03 | 43.25430 | 130.74874 | 22896 ft | 444 kts | 95° |
| 2026-05-05 19:04 | 43.25241 | 130.79100 | 22299 ft | 443 kts | 95° |
| 2026-05-05 19:04 | 43.25051 | 130.83313 | 21718 ft | 443 kts | 95° |
| 2026-05-05 19:04 | 43.24858 | 130.87518 | 21148 ft | 442 kts | 95° |
| 2026-05-05 19:04 | 43.24662 | 130.91734 | 20587 ft | 441 kts | 95° |
| 2026-05-05 19:05 | 43.24470 | 130.95927 | 20041 ft | 441 kts | 96° |
| 2026-05-05 19:05 | 43.24277 | 131.00123 | 19499 ft | 440 kts | 96° |
| 2026-05-05 19:05 | 43.24081 | 131.04298 | 18972 ft | 439 kts | 96° |
| 2026-05-05 19:05 | 43.23882 | 131.08460 | 18406 ft | 434 kts | 96° |
| 2026-05-05 19:06 | 43.23683 | 131.12548 | 17806 ft | 425 kts | 96° |
| 2026-05-05 19:06 | 43.23487 | 131.16557 | 17149 ft | 417 kts | 97° |
| 2026-05-05 19:06 | 43.23294 | 131.20487 | 16608 ft | 407 kts | 97° |
| 2026-05-05 19:06 | 43.23070 | 131.24302 | 16132 ft | 396 kts | 99° |
| 2026-05-05 19:07 | 43.22812 | 131.28021 | 15651 ft | 387 kts | 99° |
| 2026-05-05 19:07 | 43.22540 | 131.31660 | 15180 ft | 381 kts | 100° |
| 2026-05-05 19:07 | 43.22264 | 131.35258 | 14715 ft | 378 kts | 100° |
| 2026-05-05 19:07 | 43.21994 | 131.38819 | 14257 ft | 373 kts | 100° |
| 2026-05-05 19:08 | 43.21735 | 131.42318 | 13796 ft | 366 kts | 100° |
| 2026-05-05 19:08 | 43.21353 | 131.45716 | 13292 ft | 356 kts | 109° |
| 2026-05-05 19:08 | 43.20624 | 131.48881 | 12692 ft | 351 kts | 114° |
| 2026-05-05 19:08 | 43.19856 | 131.52040 | 12116 ft | 347 kts | 113° |
| 2026-05-05 19:09 | 43.19100 | 131.55163 | 11520 ft | 344 kts | 113° |
| 2026-05-05 19:09 | 43.18514 | 131.58326 | 10942 ft | 343 kts | 98° |
| 2026-05-05 19:09 | 43.18558 | 131.61581 | 10381 ft | 341 kts | 79° |
| 2026-05-05 19:09 | 43.19238 | 131.64647 | 9833 ft | 334 kts | 62° |
| 2026-05-05 19:10 | 43.20342 | 131.67408 | 9306 ft | 328 kts | 56° |
| 2026-05-05 19:10 | 43.21451 | 131.70098 | 8811 ft | 320 kts | 57° |
| 2026-05-05 19:10 | 43.22525 | 131.72724 | 8335 ft | 312 kts | 57° |
| 2026-05-05 19:10 | 43.23574 | 131.75296 | 7865 ft | 305 kts | 57° |
| 2026-05-05 19:11 | 43.24597 | 131.77808 | 7362 ft | 299 kts | 57° |
| 2026-05-05 19:11 | 43.25606 | 131.80281 | 6836 ft | 295 kts | 57° |
| 2026-05-05 19:11 | 43.26603 | 131.82724 | 6332 ft | 290 kts | 57° |
| 2026-05-05 19:11 | 43.27577 | 131.85114 | 5833 ft | 285 kts | 57° |
| 2026-05-05 19:12 | 43.28534 | 131.87466 | 5331 ft | 279 kts | 57° |
| 2026-05-05 19:12 | 43.29473 | 131.89773 | 4843 ft | 275 kts | 57° |
| 2026-05-05 19:12 | 43.30387 | 131.92015 | 4367 ft | 270 kts | 56° |
| 2026-05-05 19:12 | 43.31297 | 131.94248 | 3855 ft | 264 kts | 57° |
| 2026-05-05 19:13 | 43.32170 | 131.96399 | 3396 ft | 251 kts | 57° |
| 2026-05-05 19:13 | 43.32995 | 131.98433 | 2970 ft | 238 kts | 57° |
| 2026-05-05 19:13 | 43.33786 | 132.00382 | 2521 ft | 229 kts | 58° |
| 2026-05-05 19:13 | 43.34551 | 132.02266 | 2071 ft | 222 kts | 58° |
| 2026-05-05 19:14 | 43.35289 | 132.04083 | 1746 ft | 208 kts | 60° |
| 2026-05-05 19:14 | 43.35954 | 132.05721 | 1508 ft | 190 kts | 61° |
| 2026-05-05 19:14 | 43.36578 | 132.07260 | 1113 ft | 174 kts | 61° |
| 2026-05-05 19:14 | 43.37138 | 132.08641 | 826 ft | 157 kts | 61° |
| 2026-05-05 19:15 | 43.37639 | 132.09881 | 607 ft | 141 kts | 60° |
| 2026-05-05 19:15 | 43.38130 | 132.11100 | 766 ft | 154 kts | 61° |
| 2026-05-05 19:15 | 43.38659 | 132.12407 | 1416 ft | 166 kts | 62° |
| 2026-05-05 19:15 | 43.39238 | 132.13829 | 2037 ft | 171 kts | 59° |
| 2026-05-05 19:16 | 43.39796 | 132.15279 | 2712 ft | 172 kts | 59° |
| 2026-05-05 19:16 | 43.40319 | 132.16773 | 3322 ft | 177 kts | 60° |
| 2026-05-05 19:16 | 43.40889 | 132.18383 | 3681 ft | 198 kts | 57° |
| 2026-05-05 19:16 | 43.41632 | 132.20127 | 3879 ft | 227 kts | 54° |
| 2026-05-05 19:17 | 43.42484 | 132.22025 | 3866 ft | 236 kts | 53° |
| 2026-05-05 19:17 | 43.43424 | 132.23870 | 3899 ft | 233 kts | 37° |
| 2026-05-05 19:17 | 43.44821 | 132.24712 | 3903 ft | 214 kts | 353° |
| 2026-05-05 19:17 | 43.46132 | 132.24113 | 3905 ft | 199 kts | 316° |
| 2026-05-05 19:18 | 43.46944 | 132.22552 | 3896 ft | 211 kts | 285° |
| 2026-05-05 19:18 | 43.46975 | 132.20513 | 3892 ft | 219 kts | 260° |
| 2026-05-05 19:18 | 43.46717 | 132.18439 | 3907 ft | 221 kts | 263° |
| 2026-05-05 19:18 | 43.46509 | 132.16343 | 3897 ft | 221 kts | 264° |
| 2026-05-05 19:19 | 43.46317 | 132.14240 | 3919 ft | 221 kts | 264° |
| 2026-05-05 19:19 | 43.46127 | 132.12139 | 4124 ft | 222 kts | 264° |
| 2026-05-05 19:19 | 43.45935 | 132.10029 | 4197 ft | 222 kts | 264° |
| 2026-05-05 19:19 | 43.45736 | 132.07915 | 4207 ft | 223 kts | 263° |
| 2026-05-05 19:20 | 43.45533 | 132.05786 | 4205 ft | 229 kts | 264° |
| 2026-05-05 19:20 | 43.45325 | 132.03596 | 4202 ft | 232 kts | 264° |
| 2026-05-05 19:20 | 43.45115 | 132.01390 | 4208 ft | 230 kts | 264° |
| 2026-05-05 19:20 | 43.44839 | 131.99227 | 4203 ft | 230 kts | 256° |
| 2026-05-05 19:21 | 43.44164 | 131.97213 | 4203 ft | 234 kts | 244° |
| 2026-05-05 19:21 | 43.43347 | 131.95281 | 4202 ft | 234 kts | 244° |
| 2026-05-05 19:21 | 43.42532 | 131.93340 | 4198 ft | 233 kts | 244° |
| 2026-05-05 19:21 | 43.41753 | 131.91479 | 4199 ft | 216 kts | 244° |
| 2026-05-05 19:22 | 43.41031 | 131.89759 | 4187 ft | 199 kts | 244° |
| 2026-05-05 19:22 | 43.40164 | 131.88342 | 4197 ft | 194 kts | 224° |
| 2026-05-05 19:22 | 43.38914 | 131.87606 | 4196 ft | 203 kts | 197° |
| 2026-05-05 19:22 | 43.37475 | 131.87779 | 4193 ft | 217 kts | 166° |
| 2026-05-05 19:23 | 43.36114 | 131.88754 | 4216 ft | 221 kts | 157° |
| 2026-05-05 19:23 | 43.34768 | 131.89795 | 4202 ft | 222 kts | 157° |
| 2026-05-05 19:23 | 43.33425 | 131.90833 | 4192 ft | 222 kts | 156° |
| 2026-05-05 19:23 | 43.32100 | 131.91981 | 3724 ft | 233 kts | 142° |
| 2026-05-05 19:24 | 43.31373 | 131.93957 | 3252 ft | 236 kts | 96° |
| 2026-05-05 19:24 | 43.31735 | 131.96023 | 2880 ft | 222 kts | 52° |
| 2026-05-05 19:24 | 43.32668 | 131.97675 | 2571 ft | 218 kts | 52° |
| 2026-05-05 19:24 | 43.33416 | 131.99433 | 2298 ft | 208 kts | 58° |
| 2026-05-05 19:25 | 43.34090 | 132.01119 | 2032 ft | 194 kts | 58° |
| 2026-05-05 19:25 | 43.34706 | 132.02648 | 1784 ft | 172 kts | 59° |
| 2026-05-05 19:25 | 43.35262 | 132.04019 | 1563 ft | 157 kts | 59° |
| 2026-05-05 19:25 | 43.35771 | 132.05272 | 1363 ft | 146 kts | 61° |
| 2026-05-05 19:26 | 43.36252 | 132.06470 | 1147 ft | 141 kts | 60° |
| 2026-05-05 19:26 | 43.36722 | 132.07620 | 944 ft | 136 kts | 60° |
| 2026-05-05 19:26 | 43.37181 | 132.08745 | 771 ft | 133 kts | 60° |
| 2026-05-05 19:26 | 43.37628 | 132.09847 | 619 ft | 131 kts | 60° |
| 2026-05-05 19:27 | 43.38066 | 132.10932 | 433 ft | 128 kts | 60° |
| 2026-05-05 19:27 | 43.38501 | 132.12000 | 277 ft | 128 kts | 60° |
| 2026-05-05 19:27 | 43.38929 | 132.13072 | 94 ft | 127 kts | 60° |
| 2026-05-05 19:27 | 43.39319 | 132.14044 | 63 ft | 98 kts | 60° |
| 2026-05-05 19:28 | 43.39574 | 132.14678 | 61 ft | 62 kts | 62° |
| 2026-05-05 19:28 | 43.39768 | 132.15162 | 61 ft | 54 kts | 60° |
| 2026-05-05 19:28 | 43.39942 | 132.15582 | 61 ft | 48 kts | 61° |
| 2026-05-05 19:28 | 43.40099 | 132.15969 | 63 ft | 44 kts | 61° |
| 2026-05-05 19:29 | 43.40235 | 132.16308 | 66 ft | 39 kts | 60° |
| 2026-05-05 19:29 | 43.40348 | 132.16583 | 59 ft | 14 kts | 60° |
| 2026-05-05 19:29 | 43.40396 | 132.16700 | 67 ft | 14 kts | 60° |
| 2026-05-05 19:29 | 43.40428 | 132.16831 | 68 ft | 15 kts | 99° |
| 2026-05-05 19:30 | 43.40349 | 132.16918 | 65 ft | 15 kts | 153° |
| 2026-05-05 19:30 | 43.40254 | 132.16985 | 66 ft | 14 kts | 153° |
| 2026-05-05 19:30 | 43.40191 | 132.17011 | 66 ft | 9 kts | 193° |
| 2026-05-05 19:30 | 43.40158 | 132.16939 | 62 ft | 10 kts | 243° |
| 2026-05-05 19:31 | 43.40124 | 132.16853 | 67 ft | 11 kts | 240° |
| 2026-05-05 19:31 | 43.40086 | 132.16760 | 68 ft | 12 kts | 240° |
| 2026-05-05 19:31 | 43.40045 | 132.16658 | 68 ft | 13 kts | 240° |
| 2026-05-05 19:31 | 43.40007 | 132.16562 | 64 ft | 9 kts | 242° |
| 2026-05-05 19:32 | 43.39964 | 132.16521 | 63 ft | 8 kts | 172° |
| 2026-05-05 19:32 | 43.39927 | 132.16549 | 66 ft | 3 kts | 150° |
| 2026-05-05 19:32 | 43.39921 | 132.16554 | 67 ft | 0 kts | 150° |